createdAt,value
2017-04-17T00:00:16.484Z,7.8
2017-04-17T00:01:18.623Z,7.8
2017-04-17T00:02:20.757Z,7.7
2017-04-17T00:03:22.894Z,7.9
2017-04-17T00:04:25.026Z,7.5
2017-04-17T00:05:27.172Z,7.4
2017-04-17T00:06:29.142Z,7.3
2017-04-17T00:07:30.934Z,6.9
2017-04-17T00:08:32.735Z,7.4
2017-04-17T00:09:34.535Z,7.6
2017-04-17T00:10:36.334Z,7.6
2017-04-17T00:11:38.479Z,7.1
2017-04-17T00:12:40.280Z,7.2
2017-04-17T00:13:42.077Z,7.3
2017-04-17T00:14:43.873Z,7.4
2017-04-17T00:15:45.681Z,7.5
2017-04-17T00:16:47.480Z,7.4
2017-04-17T00:17:49.276Z,7.3
2017-04-17T00:18:51.332Z,7.5
2017-04-17T00:19:53.249Z,7.5
2017-04-17T00:20:55.050Z,7.4
2017-04-17T00:21:56.846Z,7.2
2017-04-17T00:22:59.321Z,7.1
2017-04-17T00:24:01.120Z,7
2017-04-17T00:25:02.919Z,7
2017-04-17T00:26:05.063Z,6.8
2017-04-17T00:27:06.852Z,7
2017-04-17T00:28:08.651Z,7.5
2017-04-17T00:29:10.448Z,7.2
2017-04-17T00:30:12.245Z,7.6
2017-04-17T00:31:14.165Z,7.1
2017-04-17T00:32:15.965Z,7
2017-04-17T00:33:17.761Z,7
2017-04-17T00:34:19.556Z,7.2
2017-04-17T00:35:21.691Z,7
2017-04-17T00:36:23.489Z,6.8
2017-04-17T00:37:25.626Z,6.9
2017-04-17T00:38:27.432Z,6.8
2017-04-17T00:39:29.573Z,6.8
2017-04-17T00:40:31.392Z,6.9
2017-04-17T00:41:33.525Z,7
2017-04-17T00:42:35.659Z,6.9
2017-04-17T00:43:37.998Z,7.2
2017-04-17T00:44:40.127Z,7
2017-04-17T00:45:42.262Z,7
2017-04-17T00:46:44.056Z,6.9
2017-04-17T00:47:45.852Z,7
2017-04-17T00:48:47.642Z,6.9
2017-04-17T00:49:49.441Z,7
2017-04-17T00:50:51.573Z,6.9
2017-04-17T00:51:53.373Z,6.8
2017-04-17T00:52:55.507Z,6.9
2017-04-17T00:53:57.306Z,6.9
2017-04-17T00:54:59.250Z,6.9
2017-04-17T00:56:01.247Z,7.1
2017-04-17T00:57:03.119Z,6.8
2017-04-17T00:58:04.917Z,7.1
2017-04-17T00:59:06.710Z,7
2017-04-17T01:00:08.503Z,6.8
2017-04-17T01:01:10.296Z,6.6
2017-04-17T01:02:12.094Z,6.9
2017-04-17T01:03:14.231Z,6.6
2017-04-17T01:04:16.368Z,6.7
2017-04-17T01:05:18.161Z,6.8
2017-04-17T01:06:19.950Z,6.7
2017-04-17T01:07:21.891Z,6.5
2017-04-17T01:08:24.478Z,6.4
2017-04-17T01:09:26.270Z,6.8
2017-04-17T01:10:28.064Z,6.5
2017-04-17T01:11:29.859Z,7
2017-04-17T01:12:31.660Z,7.1
2017-04-17T01:13:33.456Z,7
2017-04-17T01:14:35.252Z,6.6
2017-04-17T01:15:37.385Z,6.5
2017-04-17T01:16:39.186Z,6.3
2017-04-17T01:17:40.983Z,6.3
2017-04-17T01:18:43.453Z,6.7
2017-04-17T01:19:45.378Z,6.9
2017-04-17T01:20:47.184Z,6.3
2017-04-17T01:21:49.322Z,6.3
2017-04-17T01:22:51.459Z,6.4
2017-04-17T01:23:53.253Z,6.5
2017-04-17T01:24:55.049Z,6.5
2017-04-17T01:25:56.846Z,6.5
2017-04-17T01:26:58.640Z,6.4
2017-04-17T01:28:00.432Z,6.4
2017-04-17T01:29:02.233Z,6.7
2017-04-17T01:30:04.025Z,6.9
2017-04-17T01:31:05.823Z,6.7
2017-04-17T01:32:07.867Z,6.5
2017-04-17T01:33:10.262Z,6.8
2017-04-17T01:34:12.059Z,6.6
2017-04-17T01:35:13.861Z,6.7
2017-04-17T01:36:15.657Z,6.6
2017-04-17T01:37:17.452Z,6.5
2017-04-17T01:38:19.250Z,6.5
2017-04-17T01:39:21.045Z,6.7
2017-04-17T01:40:22.839Z,6.6
2017-04-17T01:41:24.636Z,6.6
2017-04-17T01:42:26.428Z,6.7
2017-04-17T01:43:28.224Z,6.5
2017-04-17T01:44:30.031Z,6.7
2017-04-17T01:45:31.827Z,6.7
2017-04-17T01:46:33.735Z,6.9
2017-04-17T01:47:35.530Z,7
2017-04-17T01:48:38.001Z,6.7
2017-04-17T01:49:39.798Z,6.9
2017-04-17T01:50:41.596Z,7.1
2017-04-17T01:51:43.390Z,6.8
2017-04-17T01:52:45.521Z,6.8
2017-04-17T01:53:47.654Z,7
2017-04-17T01:54:49.456Z,7
2017-04-17T01:55:51.253Z,7
2017-04-17T01:56:53.052Z,7
2017-04-17T01:57:55.065Z,7.2
2017-04-17T01:58:57.207Z,6.9
2017-04-17T01:59:59.003Z,7
2017-04-17T02:01:00.799Z,6.8
2017-04-17T02:02:02.590Z,6.9
2017-04-17T02:03:04.393Z,7
2017-04-17T02:04:06.194Z,7
2017-04-17T02:05:08.333Z,6.9
2017-04-17T02:06:10.460Z,6.9
2017-04-17T02:07:12.259Z,6.9
2017-04-17T02:08:14.060Z,6.9
2017-04-17T02:09:16.190Z,6.9
2017-04-17T02:10:18.440Z,6.8
2017-04-17T02:11:20.313Z,6.9
2017-04-17T02:12:22.451Z,6.8
2017-04-17T02:13:24.249Z,6.9
2017-04-17T02:14:26.045Z,6.9
2017-04-17T02:15:27.842Z,7
2017-04-17T02:16:29.970Z,6.8
2017-04-17T02:17:31.766Z,6.9
2017-04-17T02:18:33.566Z,7.1
2017-04-17T02:19:35.361Z,7.1
2017-04-17T02:20:37.158Z,7.5
2017-04-17T02:21:38.953Z,7.3
2017-04-17T02:22:40.751Z,6.9
2017-04-17T02:23:42.627Z,7.2
2017-04-17T02:24:44.422Z,7.1
2017-04-17T02:25:46.215Z,6.8
2017-04-17T02:26:48.013Z,6.8
2017-04-17T02:27:49.817Z,6.8
2017-04-17T02:28:51.611Z,7.1
2017-04-17T02:29:53.404Z,6.9
2017-04-17T02:30:55.201Z,6.9
2017-04-17T02:31:56.994Z,7.2
2017-04-17T02:32:58.785Z,6.8
2017-04-17T02:34:00.581Z,6.8
2017-04-17T02:35:02.714Z,7
2017-04-17T02:36:04.510Z,6.7
2017-04-17T02:37:06.307Z,6.8
2017-04-17T02:38:08.101Z,6.7
2017-04-17T02:39:09.893Z,6.8
2017-04-17T02:40:11.692Z,7
2017-04-17T02:41:13.487Z,7
2017-04-17T02:42:15.280Z,7.2
2017-04-17T02:43:17.079Z,7.1
2017-04-17T02:44:18.878Z,7.3
2017-04-17T02:45:20.673Z,7.3
2017-04-17T02:46:22.528Z,7.4
2017-04-17T02:47:24.323Z,7
2017-04-17T02:48:26.117Z,6.8
2017-04-17T02:49:27.913Z,6.5
2017-04-17T02:50:29.708Z,6.5
2017-04-17T02:51:31.501Z,6.6
2017-04-17T02:52:33.628Z,6.8
2017-04-17T02:53:35.429Z,6.7
2017-04-17T02:54:37.571Z,6.6
2017-04-17T02:55:39.706Z,6.9
2017-04-17T02:56:41.502Z,6.7
2017-04-17T02:57:43.295Z,6.7
2017-04-17T02:58:45.148Z,6.8
2017-04-17T02:59:46.943Z,6.6
2017-04-17T03:00:48.740Z,6.5
2017-04-17T03:01:50.534Z,6.6
2017-04-17T03:02:52.329Z,6.5
2017-04-17T03:03:54.464Z,6.7
2017-04-17T03:04:56.601Z,6.8
2017-04-17T03:05:58.390Z,7
2017-04-17T03:07:00.183Z,7.1
2017-04-17T03:08:01.976Z,7.1
2017-04-17T03:09:03.773Z,7.3
2017-04-17T03:10:05.567Z,7.3
2017-04-17T03:11:07.493Z,7.3
2017-04-17T03:12:09.359Z,6.9
2017-04-17T03:13:11.155Z,6.9
2017-04-17T03:14:13.301Z,6.9
2017-04-17T03:15:15.453Z,7
2017-04-17T03:16:17.250Z,7.5
2017-04-17T03:17:19.051Z,7.2
2017-04-17T03:18:20.848Z,7.1
2017-04-17T03:19:22.648Z,7
2017-04-17T03:20:24.445Z,6.9
2017-04-17T03:21:26.243Z,6.8
2017-04-17T03:22:28.373Z,6.8
2017-04-17T03:23:30.248Z,7
2017-04-17T03:24:32.110Z,6.8
2017-04-17T03:25:33.909Z,6.7
2017-04-17T03:26:35.702Z,6.6
2017-04-17T03:27:37.506Z,6.8
2017-04-17T03:28:39.296Z,7
2017-04-17T03:29:41.094Z,6.9
2017-04-17T03:30:42.886Z,6.9
2017-04-17T03:31:44.685Z,6.8
2017-04-17T03:32:46.479Z,6.8
2017-04-17T03:33:48.610Z,6.9
2017-04-17T03:34:50.407Z,7
2017-04-17T03:35:52.405Z,7.2
2017-04-17T03:36:54.203Z,6.8
2017-04-17T03:37:56.335Z,6.7
2017-04-17T03:38:58.810Z,6.8
2017-04-17T03:40:00.605Z,6.9
2017-04-17T03:41:02.402Z,6.8
2017-04-17T03:42:04.194Z,6.9
2017-04-17T03:43:05.991Z,7
2017-04-17T03:44:08.122Z,6.9
2017-04-17T03:45:10.262Z,7.1
2017-04-17T03:46:12.056Z,6.9
2017-04-17T03:47:13.900Z,6.8
2017-04-17T03:48:16.038Z,6.9
2017-04-17T03:49:17.838Z,7
2017-04-17T03:50:19.631Z,7
2017-04-17T03:51:21.428Z,7
2017-04-17T03:52:23.222Z,6.9
2017-04-17T03:53:25.026Z,6.9
2017-04-17T03:54:27.161Z,6.8
2017-04-17T03:55:28.962Z,6.8
2017-04-17T03:56:30.757Z,6.7
2017-04-17T03:57:32.558Z,6.7
2017-04-17T03:58:34.351Z,6.8
2017-04-17T03:59:36.930Z,6.7
2017-04-17T04:00:39.077Z,6.9
2017-04-17T04:01:40.872Z,6.8
2017-04-17T04:02:42.668Z,6.8
2017-04-17T04:03:44.462Z,6.7
2017-04-17T04:04:46.256Z,6.8
2017-04-17T04:05:48.049Z,6.6
2017-04-17T04:06:49.852Z,6.6
2017-04-17T04:07:51.642Z,6.6
2017-04-17T04:08:53.439Z,6.6
2017-04-17T04:09:55.232Z,6.7
2017-04-17T04:10:57.026Z,6.8
2017-04-17T04:11:58.845Z,6.7
2017-04-17T04:13:00.637Z,6.6
2017-04-17T04:14:02.430Z,6.8
2017-04-17T04:15:04.230Z,6.9
2017-04-17T04:16:06.377Z,6.9
2017-04-17T04:17:08.176Z,6.8
2017-04-17T04:18:09.970Z,6.8
2017-04-17T04:19:11.775Z,6.8
2017-04-17T04:20:13.570Z,6.6
2017-04-17T04:21:15.366Z,6.8
2017-04-17T04:22:17.159Z,6.9
2017-04-17T04:23:19.095Z,6.7
2017-04-17T04:24:20.891Z,6.8
2017-04-17T04:25:22.682Z,6.6
2017-04-17T04:26:24.482Z,6.8
2017-04-17T04:27:26.274Z,6.6
2017-04-17T04:28:28.068Z,6.6
2017-04-17T04:29:29.861Z,6.6
2017-04-17T04:30:31.662Z,6.7
2017-04-17T04:31:33.455Z,6.8
2017-04-17T04:32:35.599Z,6.8
2017-04-17T04:33:37.733Z,6.7
2017-04-17T04:34:39.527Z,6.7
2017-04-17T04:35:41.418Z,7
2017-04-17T04:36:43.215Z,7
2017-04-17T04:37:45.007Z,7.1
2017-04-17T04:38:47.137Z,6.9
2017-04-17T04:39:48.934Z,6.9
2017-04-17T04:40:50.732Z,6.9
2017-04-17T04:41:52.891Z,6.8
2017-04-17T04:42:54.686Z,6.9
2017-04-17T04:43:56.486Z,6.9
2017-04-17T04:44:58.281Z,7
2017-04-17T04:46:00.081Z,6.9
2017-04-17T04:47:01.964Z,7.1
2017-04-17T04:48:03.767Z,7.1
2017-04-17T04:49:05.898Z,7.1
2017-04-17T04:50:07.695Z,7.2
2017-04-17T04:51:09.489Z,7.2
2017-04-17T04:52:11.288Z,7.5
2017-04-17T04:53:13.120Z,7.2
2017-04-17T04:54:15.255Z,7.3
2017-04-17T04:55:17.139Z,7.6
2017-04-17T04:56:18.946Z,7.3
2017-04-17T04:57:20.801Z,7.2
2017-04-17T04:58:22.616Z,7.2
2017-04-17T04:59:24.570Z,7.1
2017-04-17T05:00:26.402Z,7.1
2017-04-17T05:01:28.218Z,7.1
2017-04-17T05:02:30.019Z,6.9
2017-04-17T05:03:32.405Z,7.2
2017-04-17T05:04:34.288Z,7.3
2017-04-17T05:05:36.093Z,7.3
2017-04-17T05:06:38.311Z,7.3
2017-04-17T05:07:40.111Z,7.2
2017-04-17T05:08:41.907Z,7.1
2017-04-17T05:09:43.735Z,7.2
2017-04-17T05:10:45.529Z,7.1
2017-04-17T05:11:47.381Z,7.1
2017-04-17T05:12:49.520Z,7
2017-04-17T05:13:51.685Z,6.9
2017-04-17T05:14:53.611Z,7.2
2017-04-17T05:15:55.414Z,7.1
2017-04-17T05:16:57.210Z,7.1
2017-04-17T05:17:59.010Z,7.4
2017-04-17T05:19:01.286Z,7.6
2017-04-17T05:20:03.514Z,6.9
2017-04-17T05:21:05.708Z,7.2
2017-04-17T05:22:07.506Z,7.4
2017-04-17T05:23:09.717Z,7.4
2017-04-17T05:24:11.510Z,7.4
2017-04-17T05:25:13.325Z,7.5
2017-04-17T05:26:15.124Z,7.6
2017-04-17T05:27:17.258Z,7.3
2017-04-17T05:28:19.446Z,7.2
2017-04-17T05:29:21.304Z,7.3
2017-04-17T05:30:23.106Z,7.1
2017-04-17T05:31:24.988Z,7.1
2017-04-17T05:32:26.805Z,7.1
2017-04-17T05:33:28.728Z,7.2
2017-04-17T05:34:30.602Z,7.3
2017-04-17T05:35:32.402Z,7.5
2017-04-17T05:36:34.207Z,7.4
2017-04-17T05:37:36.095Z,7.3
2017-04-17T05:38:38.620Z,7
2017-04-17T05:39:41.006Z,7.2
2017-04-17T05:40:43.441Z,7.1
2017-04-17T05:41:45.936Z,7.2
2017-04-17T05:42:48.053Z,7.2
2017-04-17T05:44:44.304Z,7.1
2017-04-17T05:46:06.279Z,7.1
2017-04-17T05:47:08.616Z,7.3
2017-04-17T05:48:10.908Z,7.2
2017-04-17T05:49:13.324Z,7.3
2017-04-17T05:50:15.720Z,7.2
2017-04-17T05:51:17.950Z,7.3
2017-04-17T05:53:04.921Z,7.3
2017-04-17T05:54:07.140Z,7.3
2017-04-17T05:55:09.468Z,7.4
2017-04-17T05:56:11.732Z,7.3
2017-04-17T05:57:14.056Z,7.4
2017-04-17T05:58:16.403Z,7.4
2017-04-17T05:59:18.734Z,7.2
2017-04-17T06:00:21.163Z,7.3
2017-04-17T06:01:23.374Z,7.4
2017-04-17T06:02:25.666Z,7.3
2017-04-17T06:03:28.047Z,7.4
2017-04-17T06:04:30.250Z,7.4
2017-04-17T06:05:32.621Z,7.4
2017-04-17T06:06:34.887Z,7.6
2017-04-17T06:07:37.523Z,7.4
2017-04-17T06:08:39.735Z,7.5
2017-04-17T06:09:42.081Z,7.3
2017-04-17T06:10:44.395Z,7.6
2017-04-17T06:11:46.743Z,7.7
2017-04-17T06:12:49.027Z,7.6
2017-04-17T06:13:51.388Z,7.7
2017-04-17T06:14:53.501Z,7.5
2017-04-17T06:15:55.837Z,7.4
2017-04-17T06:16:57.987Z,7.8
2017-04-17T06:18:00.283Z,7.6
2017-04-17T06:19:02.291Z,7.5
2017-04-17T06:20:04.257Z,7.6
2017-04-17T06:21:06.260Z,7.9
2017-04-17T06:22:08.067Z,8.1
2017-04-17T06:23:09.865Z,8.1
2017-04-17T06:24:11.869Z,8.2
2017-04-17T06:25:13.666Z,8.2
2017-04-17T06:26:16.116Z,8.3
2017-04-17T06:27:22.576Z,8
2017-04-17T06:28:24.653Z,8.2
2017-04-17T06:29:26.518Z,7.8
2017-04-17T06:30:28.321Z,7.8
2017-04-17T06:31:30.117Z,8.1
2017-04-17T06:32:31.915Z,7.9
2017-04-17T06:33:34.046Z,7.9
2017-04-17T06:34:35.845Z,7.9
2017-04-17T06:35:37.641Z,7.7
2017-04-17T06:36:39.702Z,7.7
2017-04-17T06:37:41.739Z,8.1
2017-04-17T06:38:43.538Z,8.1
2017-04-17T06:39:45.333Z,8.1
2017-04-17T06:40:47.155Z,8
2017-04-17T06:41:49.294Z,8.2
2017-04-17T06:42:51.096Z,8.7
2017-04-17T06:43:52.894Z,8.5
2017-04-17T06:44:54.697Z,8
2017-04-17T06:45:56.494Z,8
2017-04-17T06:46:58.298Z,8.2
2017-04-17T06:48:00.131Z,8.1
2017-04-17T06:49:02.080Z,8.3
2017-04-17T06:50:04.217Z,8.4
2017-04-17T06:51:06.015Z,8.7
2017-04-17T06:52:07.813Z,8.8
2017-04-17T06:53:10.181Z,8.9
2017-04-17T06:54:12.236Z,8.9
2017-04-17T06:55:14.311Z,8.9
2017-04-17T06:56:16.112Z,9.2
2017-04-17T06:57:17.909Z,9.3
2017-04-17T06:58:19.978Z,9.2
2017-04-17T06:59:22.461Z,8.9
2017-04-17T07:00:24.476Z,8.2
2017-04-17T07:01:26.292Z,8.5
2017-04-17T07:02:28.434Z,8.6
2017-04-17T07:03:30.239Z,8.6
2017-04-17T07:04:32.037Z,8.7
2017-04-17T07:05:33.837Z,8.9
2017-04-17T07:06:35.648Z,9.1
2017-04-17T07:07:37.454Z,9.1
2017-04-17T07:08:39.264Z,9.1
2017-04-17T07:09:41.066Z,8.9
2017-04-17T07:10:43.241Z,9
2017-04-17T07:11:45.049Z,9.1
2017-04-17T07:12:47.400Z,9.1
2017-04-17T07:14:18.515Z,9.2
2017-04-17T07:15:20.389Z,9.2
2017-04-17T07:16:22.221Z,9.1
2017-04-17T07:17:24.582Z,9.4
2017-04-17T07:18:26.733Z,9.3
2017-04-17T07:19:35.593Z,9.2
2017-04-17T07:20:37.474Z,9.5
2017-04-17T07:22:15.346Z,9.5
2017-04-17T07:23:21.445Z,9.3
2017-04-17T07:24:23.559Z,9.4
2017-04-17T07:25:25.363Z,9.5
2017-04-17T07:26:27.415Z,10
2017-04-17T07:27:29.214Z,10
2017-04-17T07:28:31.444Z,9.4
2017-04-17T07:29:33.243Z,9.7
2017-04-17T07:30:35.380Z,9.6
2017-04-17T07:31:37.723Z,9.7
2017-04-17T07:32:39.524Z,10.1
2017-04-17T07:33:41.597Z,9.7
2017-04-17T07:34:43.395Z,9.5
2017-04-17T07:35:45.193Z,9.5
2017-04-17T07:36:47.333Z,9.7
2017-04-17T07:37:49.472Z,9.7
2017-04-17T07:38:51.274Z,10
2017-04-17T07:39:53.070Z,10.2
2017-04-17T07:40:54.873Z,9.7
2017-04-17T07:41:56.675Z,9.6
2017-04-17T07:42:58.629Z,9.9
2017-04-17T07:44:00.428Z,9.6
2017-04-17T07:45:02.234Z,9.7
2017-04-17T07:46:04.036Z,10
2017-04-17T07:47:05.843Z,9.9
2017-04-17T07:48:07.640Z,9.9
2017-04-17T07:49:09.439Z,10
2017-04-17T07:50:11.336Z,10.2
2017-04-17T07:51:13.274Z,9.9
2017-04-17T07:52:15.075Z,10
2017-04-17T07:53:17.215Z,10
2017-04-17T07:54:19.020Z,10.3
2017-04-17T07:55:20.934Z,10.4
2017-04-17T07:56:22.732Z,10.4
2017-04-17T07:57:24.533Z,10.5
2017-04-17T07:58:26.675Z,10.4
2017-04-17T07:59:28.475Z,10.8
2017-04-17T08:00:30.280Z,10.3
2017-04-17T08:01:32.079Z,10.6
2017-04-17T08:02:34.419Z,11
2017-04-17T08:03:36.903Z,11.2
2017-04-17T08:04:38.711Z,11.1
2017-04-17T08:05:40.512Z,11
2017-04-17T08:06:42.317Z,10.7
2017-04-17T08:07:44.122Z,10.5
2017-04-17T08:08:46.481Z,10.7
2017-04-17T08:09:48.624Z,11.2
2017-04-17T08:10:50.675Z,11.4
2017-04-17T08:11:52.477Z,11.6
2017-04-17T08:12:54.282Z,11.4
2017-04-17T08:13:56.089Z,11.3
2017-04-17T08:14:58.112Z,11.4
2017-04-17T08:16:00.070Z,11.5
2017-04-17T08:17:01.874Z,11.8
2017-04-17T08:18:03.683Z,11.8
2017-04-17T08:19:05.485Z,11.7
2017-04-17T08:20:07.737Z,11.5
2017-04-17T08:21:09.875Z,11.5
2017-04-17T08:22:11.690Z,11.2
2017-04-17T08:23:13.500Z,11
2017-04-17T08:24:15.304Z,11.4
2017-04-17T08:25:17.112Z,11.3
2017-04-17T08:26:19.040Z,11.4
2017-04-17T08:27:20.841Z,11.3
2017-04-17T08:28:22.654Z,11.2
2017-04-17T08:29:24.798Z,11.5
2017-04-17T08:30:26.603Z,11.4
2017-04-17T08:31:28.978Z,11.7
2017-04-17T08:32:30.786Z,11.5
2017-04-17T08:33:32.854Z,11.7
2017-04-17T08:34:34.663Z,12
2017-04-17T08:35:36.814Z,12.2
2017-04-17T08:36:38.617Z,11.9
2017-04-17T08:37:40.435Z,12.3
2017-04-17T08:38:42.735Z,12.2
2017-04-17T08:39:44.548Z,12.3
2017-04-17T08:40:46.403Z,12.3
2017-04-17T08:42:38.024Z,12.9
2017-04-17T08:44:05.657Z,12.7
2017-04-17T08:45:07.510Z,12.9
2017-04-17T08:46:09.316Z,12.8
2017-04-17T08:47:11.126Z,12.5
2017-04-17T08:48:12.931Z,12.9
2017-04-17T08:49:14.797Z,12.9
2017-04-17T08:50:16.600Z,12.8
2017-04-17T08:51:18.608Z,12.9
2017-04-17T08:52:20.662Z,12.6
2017-04-17T08:53:22.571Z,11.9
2017-04-17T08:54:24.536Z,11.9
2017-04-17T08:55:26.499Z,11.9
2017-04-17T08:56:28.692Z,12.2
2017-04-17T08:57:30.514Z,12.6
2017-04-17T08:58:32.663Z,12.7
2017-04-17T08:59:34.464Z,12.6
2017-04-17T09:00:36.468Z,12.4
2017-04-17T09:01:38.273Z,12.4
2017-04-17T09:02:40.082Z,12.7
2017-04-17T09:03:41.888Z,12.4
2017-04-17T09:04:44.062Z,12.1
2017-04-17T09:05:45.873Z,12.2
2017-04-17T09:06:47.681Z,12.2
2017-04-17T09:07:49.487Z,11.9
2017-04-17T09:08:51.460Z,12.2
2017-04-17T09:09:53.272Z,12.6
2017-04-17T09:10:55.083Z,12.5
2017-04-17T09:11:57.132Z,12.9
2017-04-17T09:12:58.940Z,12.4
2017-04-17T09:14:00.747Z,12.8
2017-04-17T09:15:02.726Z,12.9
2017-04-17T09:16:05.079Z,13
2017-04-17T09:17:06.912Z,13.3
2017-04-17T09:18:09.073Z,13.2
2017-04-17T09:19:10.887Z,13.3
2017-04-17T09:20:12.699Z,13.4
2017-04-17T09:21:14.789Z,13.2
2017-04-17T09:22:16.600Z,12.2
2017-04-17T09:23:18.506Z,12.5
2017-04-17T09:24:20.315Z,12.8
2017-04-17T09:25:22.118Z,12.6
2017-04-17T09:26:23.934Z,13
2017-04-17T09:27:25.998Z,12.8
2017-04-17T09:28:29.427Z,13
2017-04-17T09:29:31.241Z,12.4
2017-04-17T09:30:33.050Z,12.2
2017-04-17T09:31:35.181Z,12.6
2017-04-17T09:32:37.629Z,13.2
2017-04-17T09:33:39.443Z,13.5
2017-04-17T09:34:41.564Z,13.9
2017-04-17T09:35:43.376Z,13.7
2017-04-17T09:36:45.186Z,12.9
2017-04-17T09:37:47.063Z,12.8
2017-04-17T09:38:49.235Z,12.7
2017-04-17T09:39:51.043Z,12.7
2017-04-17T09:40:52.871Z,12.8
2017-04-17T09:41:55.041Z,13
2017-04-17T09:42:57.331Z,13
2017-04-17T09:43:59.513Z,12.7
2017-04-17T09:45:01.825Z,12.7
2017-04-17T09:46:03.921Z,13
2017-04-17T09:47:05.734Z,12.9
2017-04-17T09:48:07.543Z,12.8
2017-04-17T09:49:10.028Z,12.7
2017-04-17T09:50:11.832Z,12.6
2017-04-17T09:51:13.788Z,12.8
2017-04-17T09:52:15.822Z,12.9
2017-04-17T09:53:17.636Z,13.6
2017-04-17T09:54:19.658Z,13.9
2017-04-17T09:55:21.470Z,13.9
2017-04-17T09:56:23.283Z,13.7
2017-04-17T09:57:25.432Z,13.6
2017-04-17T09:58:27.578Z,13.2
2017-04-17T09:59:29.850Z,12.8
2017-04-17T10:00:31.771Z,12.6
2017-04-17T10:01:33.962Z,12.6
2017-04-17T10:02:36.761Z,13.1
2017-04-17T10:03:38.907Z,12.8
2017-04-17T10:04:40.714Z,12.6
2017-04-17T10:05:42.708Z,12.6
2017-04-17T10:06:44.514Z,13.3
2017-04-17T10:07:46.328Z,13.8
2017-04-17T10:08:48.141Z,14.5
2017-04-17T10:09:49.962Z,14.7
2017-04-17T10:10:51.976Z,14.5
2017-04-17T10:11:53.786Z,14.5
2017-04-17T10:12:55.947Z,14.4
2017-04-17T10:13:57.866Z,13.8
2017-04-17T10:14:59.676Z,13.9
2017-04-17T10:16:01.488Z,13.6
2017-04-17T10:17:03.313Z,13.5
2017-04-17T10:18:05.471Z,13.7
2017-04-17T10:19:08.234Z,13.5
2017-04-17T10:20:10.748Z,13.4
2017-04-17T10:21:12.554Z,13.8
2017-04-17T10:22:14.363Z,14.3
2017-04-17T10:23:16.429Z,14.8
2017-04-17T10:24:18.238Z,15.7
2017-04-17T10:25:20.210Z,15.8
2017-04-17T10:26:22.138Z,15.7
2017-04-17T10:27:24.059Z,15.8
2017-04-17T10:28:25.876Z,15.7
2017-04-17T10:29:27.691Z,15.6
2017-04-17T10:30:29.503Z,14.9
2017-04-17T10:31:31.322Z,14.8
2017-04-17T10:32:33.372Z,15
2017-04-17T10:33:35.184Z,15
2017-04-17T10:34:37.340Z,14.2
2017-04-17T10:35:39.160Z,13.7
2017-04-17T10:36:41.205Z,13.5
2017-04-17T10:37:43.248Z,13.6
2017-04-17T10:38:45.064Z,13.9
2017-04-17T10:39:46.874Z,13.7
2017-04-17T10:40:48.692Z,14.1
2017-04-17T10:41:50.519Z,14
2017-04-17T10:42:52.340Z,13.6
2017-04-17T10:43:54.485Z,13.6
2017-04-17T10:44:56.294Z,13.8
2017-04-17T10:45:58.659Z,13.8
2017-04-17T10:47:00.480Z,14.7
2017-04-17T10:48:02.466Z,15.4
2017-04-17T10:49:04.443Z,15.8
2017-04-17T10:50:06.266Z,16.7
2017-04-17T10:51:08.331Z,15.2
2017-04-17T10:52:10.158Z,14.4
2017-04-17T10:53:11.975Z,14.5
2017-04-17T10:54:14.030Z,14.9
2017-04-17T10:55:16.010Z,14.3
2017-04-17T10:56:18.261Z,13.9
2017-04-17T10:57:21.131Z,14.3
2017-04-17T10:58:22.976Z,14.7
2017-04-17T10:59:24.922Z,14.4
2017-04-17T11:00:26.733Z,14.3
2017-04-17T11:01:29.125Z,14.8
2017-04-17T11:02:31.134Z,15.3
2017-04-17T11:03:32.950Z,15.8
2017-04-17T11:04:34.758Z,15.1
2017-04-17T11:05:43.222Z,15.6
2017-04-17T11:06:51.685Z,15.7
2017-04-17T11:07:59.485Z,15.6
2017-04-17T11:09:04.440Z,16
2017-04-17T11:10:10.156Z,16.8
2017-04-17T11:11:15.459Z,17
2017-04-17T11:12:21.420Z,16.9
2017-04-17T11:13:28.619Z,16.8
2017-04-17T11:14:38.954Z,17
2017-04-17T11:15:51.833Z,17.6
2017-04-17T11:16:57.482Z,18.3
2017-04-17T11:18:08.841Z,17.4
2017-04-17T11:19:48.101Z,17.9
2017-04-17T11:21:37.624Z,17.7
2017-04-17T11:25:55.331Z,17
2017-04-17T11:27:52.412Z,16.9
2017-04-17T11:28:54.471Z,15.8
2017-04-17T11:29:56.292Z,15.5
2017-04-17T11:30:58.116Z,15.5
2017-04-17T11:31:59.938Z,15.3
2017-04-17T11:33:01.758Z,14.6
2017-04-17T11:34:03.568Z,15.4
2017-04-17T11:36:09.863Z,15.1
2017-04-17T11:37:11.686Z,15.2
2017-04-17T11:38:13.510Z,15.3
2017-04-17T11:39:15.325Z,15
2017-04-17T11:40:17.145Z,15.7
2017-04-17T11:41:19.019Z,15.8
2017-04-17T11:42:20.919Z,16.4
2017-04-17T11:43:22.738Z,16.6
2017-04-17T11:44:24.553Z,17.2
2017-04-17T11:46:03.840Z,17.2
2017-04-17T11:48:18.076Z,17.1
2017-04-17T11:55:09.940Z,17.3
2017-04-17T11:56:17.735Z,17.7
2017-04-17T11:57:26.367Z,16.6
2017-04-17T11:58:31.308Z,16.5
2017-04-17T11:59:41.827Z,16
2017-04-17T12:00:59.465Z,16.6
2017-04-17T12:02:12.156Z,17.2
2017-04-17T12:03:24.075Z,16.6
2017-04-17T12:04:34.976Z,17.4
2017-04-17T12:05:50.671Z,17.7
2017-04-17T12:07:00.229Z,18.5
2017-04-17T12:08:16.443Z,18.2
2017-04-17T12:09:30.746Z,17.5
2017-04-17T12:10:40.331Z,17.6
2017-04-17T12:11:50.428Z,17
2017-04-17T12:13:02.176Z,16.6
2017-04-17T12:14:18.805Z,16.1
2017-04-17T12:15:33.922Z,16
2017-04-17T12:16:53.051Z,15.8
2017-04-17T12:18:09.709Z,15.5
2017-04-17T12:19:31.560Z,15.8
2017-04-17T12:20:43.570Z,16.3
2017-04-17T12:22:01.929Z,16.6
2017-04-17T12:23:27.956Z,16.4
2017-04-17T12:24:44.279Z,16.1
2017-04-17T12:25:52.934Z,16.3
2017-04-17T12:27:03.120Z,17.2
2017-04-17T12:28:21.710Z,17.7
2017-04-17T12:29:32.191Z,17.8
2017-04-17T12:30:43.586Z,18
2017-04-17T12:31:53.541Z,18.4
2017-04-17T12:33:03.011Z,18.5
2017-04-17T12:34:18.638Z,18.2
2017-04-17T12:35:30.015Z,17.6
2017-04-17T12:36:41.157Z,17.7
2017-04-17T12:37:50.596Z,16.9
2017-04-17T12:38:59.517Z,16.9
2017-04-17T12:40:10.341Z,16.4
2017-04-17T12:41:20.840Z,16.5
2017-04-17T12:42:33.733Z,16.7
2017-04-17T12:43:44.656Z,16.3
2017-04-17T12:44:59.507Z,15.6
2017-04-17T12:46:16.306Z,15.2
2017-04-17T12:47:25.436Z,15.7
2017-04-17T12:48:30.357Z,15.3
2017-04-17T12:49:41.029Z,15.2
2017-04-17T12:50:52.955Z,15.1
2017-04-17T12:52:04.433Z,15.5
2017-04-17T12:53:13.001Z,16.6
2017-04-17T12:54:21.653Z,16.9
2017-04-17T12:55:31.288Z,17.7
2017-04-17T12:56:41.311Z,18.2
2017-04-17T12:57:50.087Z,18.7
2017-04-17T12:58:58.798Z,18.2
2017-04-17T13:00:08.740Z,17.5
2017-04-17T13:01:16.683Z,17.2
2017-04-17T13:02:25.591Z,17.6
2017-04-17T13:03:29.639Z,17.2
2017-04-17T13:04:37.673Z,16.8
2017-04-17T13:05:50.613Z,16.4
2017-04-17T13:07:00.726Z,16.5
2017-04-17T13:08:10.792Z,15.7
2017-04-17T13:09:19.707Z,15.5
2017-04-17T13:10:28.963Z,15.2
2017-04-17T13:11:41.023Z,15.6
2017-04-17T13:12:48.768Z,15.3
2017-04-17T13:13:57.347Z,15.1
2017-04-17T13:15:09.019Z,14.9
2017-04-17T13:16:17.765Z,14.5
2017-04-17T13:17:26.303Z,14.8
2017-04-17T13:18:31.583Z,15.3
2017-04-17T13:19:40.920Z,15.1
2017-04-17T13:20:54.263Z,15.2
2017-04-17T13:22:05.093Z,15.5
2017-04-17T13:23:15.541Z,15.6
2017-04-17T13:24:25.377Z,16.3
2017-04-17T13:25:34.313Z,16.5
2017-04-17T13:26:43.578Z,16.9
2017-04-17T13:27:51.617Z,17.6
2017-04-17T13:29:01.080Z,17.5
2017-04-17T13:30:10.123Z,17.1
2017-04-17T13:31:13.407Z,17.4
2017-04-17T13:32:16.060Z,17.3
2017-04-17T13:33:19.118Z,18.1
2017-04-17T13:34:21.957Z,17.8
2017-04-17T13:35:24.185Z,18
2017-04-17T13:36:26.598Z,18.1
2017-04-17T13:37:29.126Z,18.9
2017-04-17T13:38:31.724Z,18.7
2017-04-17T13:39:34.800Z,18.2
2017-04-17T13:40:38.002Z,17.5
2017-04-17T13:41:40.780Z,17.2
2017-04-17T13:42:43.169Z,17.1
2017-04-17T13:43:44.995Z,16.8
2017-04-17T13:44:48.604Z,16.4
2017-04-17T13:45:52.630Z,16.2
2017-04-17T13:47:00.039Z,16.1
2017-04-17T13:48:09.063Z,16.1
2017-04-17T13:49:17.346Z,16.4
2017-04-17T13:50:27.473Z,16.4
2017-04-17T13:51:37.231Z,16.2
2017-04-17T13:52:48.342Z,15.8
2017-04-17T13:53:52.611Z,15.9
2017-04-17T13:55:00.506Z,15.5
2017-04-17T13:56:09.229Z,15.6
2017-04-17T13:57:23.353Z,15.4
2017-04-17T13:58:33.026Z,15
2017-04-17T13:59:42.690Z,15
2017-04-17T14:00:53.157Z,15.1
2017-04-17T14:02:05.175Z,14.7
2017-04-17T14:03:14.969Z,14.6
2017-04-17T14:04:23.785Z,14.7
2017-04-17T14:05:34.012Z,14
2017-04-17T14:06:46.875Z,14.5
2017-04-17T14:07:52.462Z,14.2
2017-04-17T14:08:55.445Z,14.2
2017-04-17T14:10:00.025Z,14.4
2017-04-17T14:11:03.925Z,14.2
2017-04-17T14:12:07.050Z,14.4
2017-04-17T14:13:11.142Z,14
2017-04-17T14:14:15.581Z,13.6
2017-04-17T14:15:19.255Z,13.8
2017-04-17T14:16:22.117Z,13.7
2017-04-17T14:17:29.731Z,14.1
2017-04-17T14:18:32.424Z,13.6
2017-04-17T14:19:35.594Z,13.6
2017-04-17T14:20:38.578Z,13.5
2017-04-17T14:21:40.390Z,13.1
2017-04-17T14:22:44.725Z,13.3
2017-04-17T14:23:52.905Z,13.5
2017-04-17T14:25:01.462Z,13.6
2017-04-17T14:26:08.932Z,13.6
2017-04-17T14:27:18.541Z,13.6
2017-04-17T14:28:21.776Z,13.6
2017-04-17T14:29:24.540Z,13.6
2017-04-17T14:30:30.190Z,13.5
2017-04-17T14:31:32.542Z,13.6
2017-04-17T14:32:40.995Z,13.6
2017-04-17T14:33:47.137Z,13.1
2017-04-17T14:34:57.396Z,13.4
2017-04-17T14:36:02.185Z,13.4
2017-04-17T14:37:07.582Z,13.3
2017-04-17T14:38:12.631Z,13.2
2017-04-17T14:39:21.562Z,13.6
2017-04-17T14:40:30.223Z,13.7
2017-04-17T14:41:38.447Z,12.9